Time;durP1;ratioP1;P1;durP2;ratioP2;P2;SDS_P1;SDS_P2;PMS_P1;PMS_P2;Temp;Humidity;BMP_temperature;BMP_pressure;BME280_temperature;BME280_humidity;BME280_pressure;Samples;Min_cycle;Max_cycle;Signal;HPM_P1;HPM_P2
2022/03/14 00:02:14;;;;;;;16.55;11.10;;;10.20;80.20;;;;;;5100281;27;20490;-81
2022/03/14 00:04:40;;;;;;;14.73;10.38;;;10.20;81.70;;;;;;5099832;27;20054;-81
2022/03/14 00:07:06;;;;;;;14.68;10.75;;;10.20;82.90;;;;;;5098775;27;20432;-81
2022/03/14 00:09:32;;;;;;;13.48;10.00;;;10.10;85.50;;;;;;5103840;27;20525;-81
2022/03/14 00:11:57;;;;;;;12.63;9.52;;;10.20;88.80;;;;;;5099702;27;20046;-80
2022/03/14 00:14:26;;;;;;;14.20;9.25;;;10.10;90.20;;;;;;5116977;27;20035;-80
2022/03/14 00:16:54;;;;;;;12.43;9.38;;;10.10;91.50;;;;;;5099557;27;20050;-80
2022/03/14 00:19:23;;;;;;;13.18;8.80;;;10.10;92.10;;;;;;5116484;27;20047;-80
2022/03/14 00:21:49;;;;;;;12.73;8.52;;;10.00;92.30;;;;;;5086254;27;20100;-81
2022/03/14 00:24:15;;;;;;;10.98;8.38;;;9.90;93.40;;;;;;5099631;27;20042;-81
2022/03/14 00:26:41;;;;;;;12.20;8.98;;;9.80;94.10;;;;;;5084623;27;20136;-81
2022/03/14 00:29:08;;;;;;;14.05;9.90;;;9.80;94.80;;;;;;5118314;27;20166;-81
2022/03/14 00:31:34;;;;;;;12.55;9.18;;;9.60;96.20;;;;;;5101266;27;20084;-81
2022/03/14 00:34:00;;;;;;;11.02;8.02;;;9.70;96.70;;;;;;5116502;27;20504;-81
2022/03/14 00:36:27;;;;;;;11.43;8.40;;;9.30;97.60;;;;;;5115183;27;20042;-81
2022/03/14 00:38:54;;;;;;;10.95;7.70;;;9.20;98.40;;;;;;5116139;27;20043;-81
2022/03/14 00:41:20;;;;;;;11.43;7.40;;;9.20;99.60;;;;;;5101075;27;20046;-81
2022/03/14 00:43:46;;;;;;;10.18;6.80;;;9.20;99.90;;;;;;5098208;27;20049;-81
2022/03/14 00:46:11;;;;;;;9.07;6.38;;;9.40;99.90;;;;;;5117988;27;20035;-81
2022/03/14 00:48:37;;;;;;;10.40;7.00;;;9.50;99.90;;;;;;5098769;27;20039;-81
2022/03/14 00:51:05;;;;;;;9.52;6.20;;;9.50;99.90;;;;;;5098898;27;20378;-81
2022/03/14 00:53:31;;;;;;;9.70;6.00;;;9.50;99.90;;;;;;5114792;27;20118;-81
2022/03/14 00:55:59;;;;;;;8.90;5.85;;;9.60;99.90;;;;;;5098913;27;20050;-81
2022/03/14 00:58:26;;;;;;;8.32;6.00;;;9.70;99.90;;;;;;5099094;27;20043;-81
2022/03/14 01:00:51;;;;;;;7.50;5.25;;;9.70;99.90;;;;;;5100968;27;20490;-81
2022/03/14 01:03:18;;;;;;;8.90;5.50;;;9.80;99.90;;;;;;5098245;27;20072;-81
2022/03/14 01:05:43;;;;;;;8.55;5.47;;;9.80;99.90;;;;;;5115567;27;20046;-81
2022/03/14 01:08:09;;;;;;;7.88;5.00;;;9.80;99.90;;;;;;5114688;27;20058;-81
2022/03/14 01:10:35;;;;;;;7.00;4.78;;;9.90;99.90;;;;;;5115514;27;20043;-81
2022/03/14 01:13:04;;;;;;;8.57;5.03;;;9.90;99.90;;;;;;5100748;27;20039;-81
2022/03/14 01:15:32;;;;;;;7.35;4.88;;;9.90;99.90;;;;;;5098416;27;20066;-81
2022/03/14 01:17:58;;;;;;;6.88;4.75;;;9.90;99.90;;;;;;5098569;27;20406;-81
2022/03/14 01:20:25;;;;;;;6.82;4.60;;;9.80;99.90;;;;;;5081602;27;20046;-81
2022/03/14 01:22:54;;;;;;;7.38;4.35;;;9.70;99.90;;;;;;5120627;27;20043;-81
2022/03/14 01:25:20;;;;;;;7.97;4.57;;;9.70;99.90;;;;;;5115019;27;20050;-81
2022/03/14 01:27:46;;;;;;;7.18;4.50;;;9.60;99.90;;;;;;5116917;27;20043;-81
2022/03/14 01:30:14;;;;;;;6.72;4.53;;;9.60;99.90;;;;;;5117218;27;20038;-81
2022/03/14 01:32:40;;;;;;;6.75;4.22;;;9.50;99.90;;;;;;5119238;27;20486;-81
2022/03/14 01:35:06;;;;;;;6.97;4.35;;;9.40;99.90;;;;;;5115254;27;20035;-81
2022/03/14 01:37:32;;;;;;;6.90;4.40;;;9.50;99.90;;;;;;5113948;27;20053;-81
2022/03/14 01:39:58;;;;;;;7.07;4.10;;;9.50;99.90;;;;;;5099666;27;20043;-81
2022/03/14 01:42:24;;;;;;;6.78;4.10;;;9.50;99.90;;;;;;5115221;27;20455;-81
2022/03/14 01:44:49;;;;;;;6.22;3.97;;;9.50;99.90;;;;;;5116798;27;20043;-81
2022/03/14 01:47:16;;;;;;;7.22;4.28;;;9.50;99.90;;;;;;5097573;27;20050;-81
2022/03/14 01:49:44;;;;;;;6.25;4.00;;;9.50;99.90;;;;;;5117190;27;20042;-81
2022/03/14 01:52:11;;;;;;;6.72;4.10;;;9.50;99.90;;;;;;5096853;27;20043;-81
2022/03/14 01:54:38;;;;;;;7.28;3.90;;;9.50;99.90;;;;;;5098746;27;20039;-80
2022/03/14 01:57:05;;;;;;;6.30;3.90;;;9.50;99.90;;;;;;5116689;27;20159;-81
2022/03/14 01:59:32;;;;;;;6.38;3.92;;;9.50;99.90;;;;;;5114532;27;20556;-81
2022/03/14 02:01:58;;;;;;;6.20;3.70;;;9.40;99.90;;;;;;5100137;27;20039;-80
2022/03/14 02:04:24;;;;;;;6.10;3.85;;;9.40;99.90;;;;;;5101715;27;20195;-81
2022/03/14 02:06:52;;;;;;;6.20;3.80;;;9.40;99.90;;;;;;5098277;27;20092;-81
2022/03/14 02:09:19;;;;;;;5.80;3.63;;;9.40;99.90;;;;;;5116378;27;20050;-81
2022/03/14 02:11:52;;;;;;;6.00;3.58;;;9.40;99.90;;;;;;5101022;27;20074;-81
2022/03/14 02:14:18;;;;;;;7.63;3.88;;;9.40;99.90;;;;;;5116959;27;20034;-81
2022/03/14 02:16:44;;;;;;;5.78;3.70;;;9.40;99.90;;;;;;5099544;27;20494;-80
2022/03/14 02:19:10;;;;;;;6.65;3.70;;;9.40;99.90;;;;;;5099171;27;20039;-81
2022/03/14 02:21:35;;;;;;;6.30;3.80;;;9.40;99.90;;;;;;5095691;27;20051;-81
2022/03/14 02:24:02;;;;;;;6.80;3.63;;;9.30;99.90;;;;;;5114488;27;20108;-81
2022/03/14 02:26:27;;;;;;;6.35;4.13;;;9.30;99.90;;;;;;5116519;27;20035;-80
2022/03/14 02:28:53;;;;;;;6.38;3.63;;;9.30;99.90;;;;;;5101376;27;20126;-80
2022/03/14 02:31:19;;;;;;;6.07;3.80;;;9.30;99.90;;;;;;5097307;27;20039;-81
2022/03/14 02:33:45;;;;;;;6.20;3.90;;;9.30;99.90;;;;;;5099285;27;20122;-81
2022/03/14 02:36:10;;;;;;;5.95;3.30;;;9.40;99.90;;;;;;5100028;27;20047;-81
2022/03/14 02:38:36;;;;;;;6.22;3.60;;;9.40;99.90;;;;;;5096054;27;20108;-80
2022/03/14 02:41:02;;;;;;;6.80;3.53;;;9.40;99.90;;;;;;5080058;27;20043;-80
2022/03/14 02:43:28;;;;;;;6.53;3.90;;;9.40;99.90;;;;;;5103081;27;20125;-80
2022/03/14 02:45:54;;;;;;;6.05;3.55;;;9.50;99.90;;;;;;5097174;27;20038;-80
2022/03/14 02:48:23;;;;;;;6.30;4.00;;;9.50;99.90;;;;;;5097096;27;20043;-80
2022/03/14 02:50:53;;;;;;;6.28;3.70;;;9.60;99.90;;;;;;5100764;27;20050;-80
2022/03/14 02:53:19;;;;;;;7.68;3.90;;;9.60;99.90;;;;;;5098227;27;20027;-81
2022/03/14 02:55:45;;;;;;;5.72;3.53;;;9.80;99.90;;;;;;5118598;27;20083;-81
2022/03/14 02:58:11;;;;;;;5.95;3.70;;;9.90;99.90;;;;;;5117429;27;20665;-81
2022/03/14 03:00:37;;;;;;;6.65;3.50;;;9.90;99.90;;;;;;5113695;27;20042;-81
2022/03/14 03:03:06;;;;;;;6.22;3.33;;;10.00;99.90;;;;;;5097383;27;20035;-81
2022/03/14 03:05:34;;;;;;;5.78;3.58;;;10.00;99.90;;;;;;5101637;27;20035;-81
2022/03/14 03:08:01;;;;;;;5.78;3.50;;;10.10;99.90;;;;;;5101895;27;20059;-81
2022/03/14 03:10:28;;;;;;;6.32;3.28;;;10.10;99.90;;;;;;5102104;27;20054;-81
2022/03/14 03:12:54;;;;;;;5.75;3.60;;;10.10;99.90;;;;;;5118499;27;20393;-81
2022/03/14 03:15:19;;;;;;;5.93;3.30;;;10.10;99.90;;;;;;5117712;27;20117;-81
2022/03/14 03:17:45;;;;;;;5.38;3.17;;;10.10;99.90;;;;;;5119729;27;20039;-80
2022/03/14 03:20:12;;;;;;;5.40;3.33;;;10.10;99.90;;;;;;5118080;27;20043;-80
2022/03/14 03:22:38;;;;;;;5.15;3.20;;;10.00;99.90;;;;;;5105429;27;20490;-80
2022/03/14 03:25:08;;;;;;;5.75;3.03;;;10.00;99.90;;;;;;5120593;27;20067;-80
2022/03/14 03:27:34;;;;;;;5.72;3.10;;;10.00;99.90;;;;;;5118929;27;20463;-80
2022/03/14 03:30:00;;;;;;;5.95;3.05;;;9.90;99.90;;;;;;5107262;27;20062;-80
2022/03/14 03:32:26;;;;;;;5.35;3.00;;;9.90;99.90;;;;;;5117395;27;20043;-80
2022/03/14 03:34:52;;;;;;;5.13;2.95;;;9.90;99.90;;;;;;5118897;27;20042;-80
2022/03/14 03:37:18;;;;;;;7.10;3.10;;;10.00;99.90;;;;;;5117947;27;20083;-80
2022/03/14 03:39:44;;;;;;;5.30;2.92;;;10.00;99.90;;;;;;5118546;27;20070;-80
2022/03/14 03:42:10;;;;;;;5.38;2.72;;;10.00;99.90;;;;;;5100532;27;20047;-80
2022/03/14 03:44:39;;;;;;;5.18;2.83;;;10.00;99.90;;;;;;5101818;27;20038;-80
2022/03/14 03:47:05;;;;;;;5.40;3.00;;;10.00;99.90;;;;;;5101568;27;20043;-80
2022/03/14 03:49:31;;;;;;;5.38;2.75;;;10.10;99.90;;;;;;5099660;27;20031;-80
2022/03/14 03:51:57;;;;;;;4.60;2.58;;;10.10;99.90;;;;;;5119112;27;20060;-80
2022/03/14 03:54:22;;;;;;;5.13;2.67;;;10.20;99.90;;;;;;5100120;27;20036;-80
2022/03/14 03:56:49;;;;;;;5.13;2.85;;;10.20;99.90;;;;;;5101258;27;20115;-80
2022/03/14 03:59:15;;;;;;;4.97;2.80;;;10.30;99.90;;;;;;5101285;27;20590;-80
2022/03/14 04:01:41;;;;;;;4.85;2.75;;;10.30;99.90;;;;;;5100275;27;20447;-80
2022/03/14 04:04:07;;;;;;;5.45;2.75;;;10.30;99.90;;;;;;5100498;27;20132;-80
2022/03/14 04:06:35;;;;;;;5.30;2.83;;;10.30;99.90;;;;;;5100592;27;20697;-80
2022/03/14 04:09:05;;;;;;;5.07;2.65;;;10.30;99.90;;;;;;5100747;27;20065;-80
2022/03/14 04:11:37;;;;;;;5.25;2.97;;;10.20;99.90;;;;;;5118264;27;20119;-80
2022/03/14 04:14:03;;;;;;;5.55;3.10;;;10.30;99.90;;;;;;5117567;27;20482;-80
2022/03/14 04:16:29;;;;;;;5.40;2.78;;;10.30;99.90;;;;;;5098436;27;20042;-80
2022/03/14 04:18:56;;;;;;;5.90;3.00;;;10.30;99.90;;;;;;5116769;27;20472;-80
2022/03/14 04:21:23;;;;;;;5.90;2.90;;;10.30;99.90;;;;;;5124517;27;20117;-80
2022/03/14 04:23:48;;;;;;;5.72;3.28;;;10.30;99.90;;;;;;5116868;27;20039;-80
2022/03/14 04:26:15;;;;;;;5.65;3.13;;;10.30;99.90;;;;;;5116615;27;20039;-80
2022/03/14 04:28:41;;;;;;;5.75;3.60;;;10.20;99.90;;;;;;5100434;27;20121;-80
2022/03/14 04:31:10;;;;;;;5.70;3.47;;;10.20;99.90;;;;;;5116802;27;20387;-80
2022/03/14 04:33:36;;;;;;;5.70;3.35;;;10.10;99.90;;;;;;5116818;27;20047;-80
2022/03/14 04:39:43;;;;;;;7.35;3.67;;;10.00;99.90;;;;;;5136094;27;20423;-80
2022/03/14 04:42:10;;;;;;;5.55;3.60;;;10.00;99.90;;;;;;5099585;27;20050;-80
2022/03/14 04:44:36;;;;;;;6.03;3.78;;;9.90;99.90;;;;;;5116707;27;20047;-80
2022/03/14 04:47:03;;;;;;;6.55;4.03;;;9.90;99.90;;;;;;5100416;27;20043;-80
2022/03/14 04:49:29;;;;;;;6.18;3.67;;;9.80;99.90;;;;;;5116183;27;20035;-80
2022/03/14 04:51:55;;;;;;;5.97;3.97;;;9.80;99.90;;;;;;5117687;27;20050;-80
2022/03/14 04:54:24;;;;;;;8.15;4.10;;;9.70;99.90;;;;;;5102055;27;20043;-80
2022/03/14 04:56:50;;;;;;;6.57;4.20;;;9.80;99.90;;;;;;5115796;27;20043;-80
2022/03/14 04:59:17;;;;;;;6.53;4.18;;;9.80;99.90;;;;;;5081540;27;20100;-80
2022/03/14 05:01:43;;;;;;;7.22;4.20;;;9.80;99.90;;;;;;5116968;27;20096;-80
2022/03/14 05:04:09;;;;;;;6.75;3.95;;;9.70;99.90;;;;;;5115840;27;20075;-80
2022/03/14 05:06:35;;;;;;;6.25;4.00;;;9.70;99.90;;;;;;5115198;27;20081;-80
2022/03/14 05:09:01;;;;;;;6.30;4.07;;;9.70;99.90;;;;;;5082369;27;20080;-80
2022/03/14 05:11:27;;;;;;;6.78;4.22;;;9.80;99.90;;;;;;5116805;27;20043;-80
2022/03/14 05:13:53;;;;;;;7.10;4.07;;;9.60;99.90;;;;;;5099343;27;20095;-80
2022/03/14 05:16:20;;;;;;;7.13;4.38;;;9.60;99.90;;;;;;5098838;27;20095;-80
2022/03/14 05:18:46;;;;;;;6.38;4.20;;;9.60;99.90;;;;;;5100922;27;20050;-80
2022/03/14 05:21:13;;;;;;;6.40;4.10;;;9.60;99.90;;;;;;5122725;27;20126;-80
2022/03/14 05:23:39;;;;;;;6.22;4.40;;;9.60;99.90;;;;;;5115836;27;20056;-80
2022/03/14 05:26:05;;;;;;;6.30;4.13;;;9.60;99.90;;;;;;5098664;27;20067;-80
2022/03/14 05:28:31;;;;;;;6.47;4.07;;;9.50;99.90;;;;;;5088675;27;20042;-80
2022/03/14 05:30:57;;;;;;;6.43;4.22;;;9.60;99.90;;;;;;5115036;27;20397;-80
2022/03/14 05:33:23;;;;;;;6.35;4.05;;;9.60;99.90;;;;;;5116013;27;20035;-80
2022/03/14 05:35:50;;;;;;;6.28;4.18;;;9.60;99.90;;;;;;5098105;27;20046;-80
2022/03/14 05:38:16;;;;;;;7.20;4.40;;;9.50;99.90;;;;;;5114283;27;20035;-80
2022/03/14 05:40:42;;;;;;;7.50;4.40;;;9.60;99.90;;;;;;5114236;27;20629;-80
2022/03/14 05:43:09;;;;;;;6.88;4.30;;;9.50;99.90;;;;;;5097865;27;20038;-80
2022/03/14 05:45:36;;;;;;;7.50;4.63;;;9.50;99.90;;;;;;5115271;27;20089;-80
2022/03/14 05:48:02;;;;;;;6.90;4.45;;;9.60;99.90;;;;;;5118145;27;20035;-81
2022/03/14 05:50:28;;;;;;;6.80;4.68;;;9.50;99.90;;;;;;5081816;27;20516;-81
2022/03/14 05:52:54;;;;;;;6.90;4.68;;;9.50;99.90;;;;;;5080855;27;20031;-82
2022/03/14 05:55:20;;;;;;;7.68;4.65;;;9.40;99.90;;;;;;5096532;27;20080;-83
2022/03/14 05:57:49;;;;;;;7.03;4.90;;;9.40;99.90;;;;;;5116551;27;20101;-84
2022/03/14 06:00:24;;;;;;;7.22;4.93;;;9.40;99.90;;;;;;5114410;27;20088;-84
2022/03/14 06:02:52;;;;;;;7.30;4.97;;;9.40;99.90;;;;;;5102147;27;20039;-84
2022/03/14 06:05:19;;;;;;;8.52;5.25;;;9.40;99.90;;;;;;5081168;27;20070;-83
2022/03/14 06:07:45;;;;;;;7.38;5.07;;;9.30;99.90;;;;;;5096063;27;20058;-82
2022/03/14 06:10:14;;;;;;;8.85;5.75;;;9.20;99.90;;;;;;5114766;27;20051;-82
2022/03/14 06:12:40;;;;;;;7.53;5.45;;;9.20;99.90;;;;;;5081805;27;20046;-80
2022/03/14 06:15:09;;;;;;;7.78;5.20;;;9.20;99.90;;;;;;5099647;27;20502;-80
2022/03/14 06:17:35;;;;;;;9.63;5.57;;;9.20;99.90;;;;;;5100781;27;20039;-81
2022/03/14 06:20:01;;;;;;;8.25;5.93;;;9.20;99.90;;;;;;5088637;27;20035;-80
2022/03/14 06:22:27;;;;;;;7.82;5.68;;;9.20;99.90;;;;;;5104617;27;20041;-80
2022/03/14 06:24:53;;;;;;;8.30;5.95;;;9.20;99.90;;;;;;5102008;27;20409;-80
2022/03/14 06:27:32;;;;;;;7.63;5.63;;;9.10;99.90;;;;;;5116760;27;20043;-81
2022/03/14 06:29:57;;;;;;;8.45;5.78;;;9.20;99.90;;;;;;5089951;27;20035;-79
2022/03/14 06:32:23;;;;;;;8.63;6.20;;;9.20;99.90;;;;;;5114126;27;20035;-79
2022/03/14 06:34:49;;;;;;;8.85;6.10;;;9.10;99.90;;;;;;5095395;27;20562;-79
2022/03/14 06:37:15;;;;;;;8.90;6.32;;;9.10;99.90;;;;;;5094762;27;20095;-79
2022/03/14 06:39:40;;;;;;;9.73;6.55;;;9.10;99.90;;;;;;5095303;27;20107;-80
2022/03/14 06:42:09;;;;;;;9.07;6.32;;;9.10;99.90;;;;;;5112689;27;20043;-80
2022/03/14 06:44:41;;;;;;;9.48;6.72;;;9.10;99.90;;;;;;5095236;27;20054;-80
2022/03/14 06:47:08;;;;;;;9.13;6.70;;;9.00;99.90;;;;;;5114742;27;20050;-80
2022/03/14 06:49:36;;;;;;;9.43;7.15;;;9.10;99.90;;;;;;5113670;27;20047;-80
2022/03/14 06:52:02;;;;;;;9.00;6.80;;;9.00;99.90;;;;;;5101033;27;20180;-80
2022/03/14 06:54:28;;;;;;;9.88;7.05;;;9.00;99.90;;;;;;5114666;28;20035;-80
2022/03/14 06:56:54;;;;;;;9.73;7.22;;;9.20;99.90;;;;;;5097995;27;20402;-80
2022/03/14 06:59:19;;;;;;;10.35;7.70;;;9.10;99.90;;;;;;5114561;27;20051;-80
2022/03/14 07:01:45;;;;;;;10.63;7.40;;;9.10;99.90;;;;;;5099970;27;20039;-80
2022/03/14 07:04:11;;;;;;;10.00;7.55;;;9.10;99.90;;;;;;5097754;27;20065;-80
2022/03/14 07:06:37;;;;;;;10.43;7.53;;;9.10;99.90;;;;;;5113228;27;20463;-80
2022/03/14 07:09:04;;;;;;;9.95;7.40;;;9.10;99.90;;;;;;5096621;27;20122;-80
2022/03/14 07:11:31;;;;;;;10.32;8.13;;;9.10;99.90;;;;;;5114834;27;20036;-80
2022/03/14 07:13:57;;;;;;;11.25;7.88;;;9.10;99.90;;;;;;5100720;27;20037;-80
2022/03/14 07:16:22;;;;;;;10.65;7.90;;;9.10;99.90;;;;;;5114298;27;20129;-79
2022/03/14 07:18:48;;;;;;;10.82;7.80;;;9.10;99.90;;;;;;5097123;27;20074;-80
2022/03/14 07:21:17;;;;;;;11.35;8.55;;;9.20;99.90;;;;;;5115432;27;20047;-80
2022/03/14 07:23:43;;;;;;;12.40;8.52;;;9.10;99.90;;;;;;5115845;27;20126;-80
2022/03/14 07:26:09;;;;;;;10.73;8.25;;;9.20;99.90;;;;;;5100297;27;20039;-80
2022/03/14 07:28:35;;;;;;;11.85;8.90;;;9.20;99.90;;;;;;5084122;27;20039;-80
2022/03/14 07:31:01;;;;;;;11.40;8.57;;;9.20;99.90;;;;;;5076699;28;20038;-80
2022/03/14 07:33:28;;;;;;;11.40;9.13;;;9.20;99.90;;;;;;5078700;27;20123;-80
2022/03/14 07:35:55;;;;;;;12.60;9.38;;;9.20;99.90;;;;;;5098119;27;20039;-80
2022/03/14 07:38:20;;;;;;;12.25;8.73;;;9.20;99.90;;;;;;5113328;27;20463;-80
2022/03/14 07:40:46;;;;;;;12.02;9.25;;;9.20;99.90;;;;;;5118123;27;20042;-80
2022/03/14 07:43:12;;;;;;;12.63;9.88;;;9.20;99.90;;;;;;5092480;27;20069;-80
2022/03/14 07:45:38;;;;;;;12.68;9.45;;;9.20;99.90;;;;;;5087835;27;20107;-79
2022/03/14 07:48:04;;;;;;;12.98;9.82;;;9.20;99.90;;;;;;5101380;27;20039;-80
2022/03/14 07:50:30;;;;;;;13.55;10.35;;;9.30;99.90;;;;;;5101992;27;20027;-80
2022/03/14 07:52:56;;;;;;;14.15;10.50;;;9.30;99.90;;;;;;5107236;27;20552;-80
2022/03/14 07:55:23;;;;;;;13.45;10.30;;;9.30;99.90;;;;;;5100750;27;20437;-82
2022/03/14 07:57:49;;;;;;;14.07;10.50;;;9.20;99.90;;;;;;5119232;27;20046;-81
2022/03/14 08:00:18;;;;;;;14.05;10.48;;;9.30;99.90;;;;;;5097493;27;20039;-81
2022/03/14 08:02:44;;;;;;;15.32;11.57;;;9.30;99.90;;;;;;5115765;27;20031;-81
2022/03/14 08:05:14;;;;;;;14.23;11.48;;;9.30;99.90;;;;;;5118020;27;20123;-81
2022/03/14 08:07:42;;;;;;;15.52;12.35;;;9.30;99.90;;;;;;5113558;27;20124;-81
2022/03/14 08:10:09;;;;;;;14.88;12.02;;;9.30;99.90;;;;;;5119078;27;20043;-81
2022/03/14 08:12:48;;;;;;;15.55;12.70;;;9.40;99.90;;;;;;5114757;27;20043;-81
2022/03/14 08:15:36;;;;;;;16.60;13.63;;;9.50;99.90;;;;;;5118179;27;20537;-81
2022/03/14 08:18:05;;;;;;;21.70;14.85;;;9.40;99.90;;;;;;5103853;27;20036;-81
2022/03/14 08:20:32;;;;;;;17.75;14.13;;;9.40;99.90;;;;;;5102708;27;20038;-81
2022/03/14 08:23:00;;;;;;;17.83;14.45;;;9.40;99.90;;;;;;5082012;27;20034;-81
2022/03/14 08:25:26;;;;;;;18.52;14.35;;;9.40;99.90;;;;;;5099122;27;20079;-81
2022/03/14 08:27:52;;;;;;;16.83;14.32;;;9.40;99.90;;;;;;5084248;27;20028;-80
2022/03/14 08:30:21;;;;;;;16.55;13.70;;;9.40;99.90;;;;;;5101712;27;20088;-80
2022/03/14 08:32:47;;;;;;;16.42;13.95;;;9.40;99.90;;;;;;5107661;27;20035;-80
2022/03/14 08:35:16;;;;;;;17.15;14.15;;;9.40;99.90;;;;;;5114624;27;20062;-80
2022/03/14 08:37:45;;;;;;;17.80;15.15;;;9.40;99.90;;;;;;5110261;27;20706;-80
2022/03/14 08:40:13;;;;;;;16.95;14.13;;;9.40;99.90;;;;;;5114498;27;20054;-80
2022/03/14 08:42:40;;;;;;;16.80;14.02;;;9.40;99.90;;;;;;5110500;27;20389;-81
2022/03/14 08:45:08;;;;;;;18.25;15.48;;;9.40;99.90;;;;;;5121264;27;20046;-80
2022/03/14 08:47:35;;;;;;;19.13;15.18;;;9.40;99.90;;;;;;5110587;27;20051;-80
2022/03/14 08:50:02;;;;;;;19.77;16.38;;;9.40;99.90;;;;;;5133142;27;20039;-81
2022/03/14 08:52:29;;;;;;;17.35;14.82;;;9.40;99.90;;;;;;5113615;27;20039;-80
2022/03/14 08:54:55;;;;;;;18.75;14.80;;;9.70;99.90;;;;;;5098863;27;20485;-80
2022/03/14 08:57:21;;;;;;;18.70;15.48;;;9.40;99.90;;;;;;5123493;27;20043;-80
2022/03/14 08:59:47;;;;;;;19.20;16.20;;;9.40;99.90;;;;;;5090167;27;20046;-80
2022/03/14 09:02:13;;;;;;;19.05;15.32;;;9.50;99.90;;;;;;5106793;27;20047;-81
2022/03/14 09:04:38;;;;;;;18.63;15.85;;;9.50;99.90;;;;;;5105431;27;20072;-80
2022/03/14 09:07:06;;;;;;;18.90;15.93;;;9.40;99.90;;;;;;5094700;27;20035;-80
2022/03/14 09:09:32;;;;;;;20.17;16.35;;;9.40;99.90;;;;;;5096305;27;20070;-80
2022/03/14 09:11:58;;;;;;;17.67;14.85;;;9.40;99.90;;;;;;5088124;27;20146;-80
2022/03/14 09:14:24;;;;;;;18.55;15.25;;;9.40;99.90;;;;;;5114915;27;20039;-81
2022/03/14 09:16:51;;;;;;;18.38;14.25;;;9.40;99.90;;;;;;5123183;27;20465;-81
2022/03/14 09:19:17;;;;;;;18.85;15.00;;;9.40;99.90;;;;;;5123256;27;20051;-80
2022/03/14 09:21:43;;;;;;;17.83;13.88;;;9.50;99.90;;;;;;5099783;27;20049;-80
2022/03/14 09:24:09;;;;;;;18.80;15.57;;;9.50;99.90;;;;;;5110248;27;20043;-81
2022/03/14 09:26:37;;;;;;;19.25;15.70;;;9.50;99.90;;;;;;5108561;27;20050;-81
2022/03/14 09:29:04;;;;;;;20.48;16.70;;;9.50;99.90;;;;;;5124146;27;20095;-81
2022/03/14 09:31:31;;;;;;;19.77;15.68;;;9.50;99.90;;;;;;5119351;27;20439;-81
2022/03/14 09:33:57;;;;;;;20.38;15.70;;;9.50;99.90;;;;;;5137398;27;20045;-81
2022/03/14 09:36:23;;;;;;;19.45;15.23;;;9.50;99.90;;;;;;5136300;27;20048;-81
2022/03/14 09:38:49;;;;;;;18.23;14.88;;;9.50;99.90;;;;;;5137538;27;20063;-81
2022/03/14 09:41:18;;;;;;;17.15;14.73;;;9.50;99.90;;;;;;5120121;27;20034;-81
2022/03/14 09:43:46;;;;;;;19.27;15.65;;;9.50;99.90;;;;;;5137501;27;20047;-81
2022/03/14 09:46:13;;;;;;;15.60;12.88;;;9.50;99.90;;;;;;5119267;27;20046;-81
2022/03/14 09:48:50;;;;;;;15.05;12.20;;;9.50;99.90;;;;;;5099571;27;20039;-81
2022/03/14 09:51:17;;;;;;;15.10;12.45;;;9.60;99.90;;;;;;5116277;27;20506;-81
2022/03/14 09:53:44;;;;;;;16.95;14.40;;;9.60;99.90;;;;;;5116303;27;20036;-81
2022/03/14 09:56:10;;;;;;;16.00;12.18;;;9.60;99.90;;;;;;5099370;27;20126;-81
2022/03/14 09:58:36;;;;;;;15.45;12.77;;;9.60;99.90;;;;;;5099466;27;20489;-81
2022/03/14 10:01:03;;;;;;;16.23;13.00;;;9.50;99.90;;;;;;5099264;27;20091;-81
2022/03/14 10:03:30;;;;;;;16.40;12.88;;;9.50;99.90;;;;;;5082200;27;20074;-81
2022/03/14 10:05:56;;;;;;;14.93;11.82;;;9.50;99.90;;;;;;5099200;27;20047;-81
2022/03/14 10:08:22;;;;;;;14.27;11.35;;;9.50;99.90;;;;;;5098040;27;20104;-80
2022/03/14 10:10:49;;;;;;;15.90;11.73;;;9.40;99.90;;;;;;5099058;27;20054;-80
2022/03/14 10:13:16;;;;;;;16.60;12.55;;;9.40;99.90;;;;;;5115881;27;20083;-80
2022/03/14 10:15:42;;;;;;;16.05;11.68;;;9.40;99.90;;;;;;5099435;27;20074;-80
2022/03/14 10:18:10;;;;;;;15.65;11.85;;;9.50;99.90;;;;;;5115552;27;20043;-80
2022/03/14 10:20:36;;;;;;;16.85;12.75;;;9.50;99.90;;;;;;5098944;27;20050;-80
2022/03/14 10:23:03;;;;;;;19.02;14.10;;;9.40;99.90;;;;;;5114978;27;20053;-80
2022/03/14 10:25:30;;;;;;;17.17;13.65;;;9.40;99.90;;;;;;5116094;27;20050;-80
2022/03/14 10:27:57;;;;;;;19.92;14.13;;;9.40;99.90;;;;;;5115620;27;20042;-80
2022/03/14 10:30:31;;;;;;;17.95;13.52;;;9.40;99.90;;;;;;5098895;27;20050;-80
2022/03/14 10:33:07;;;;;;;19.63;14.55;;;9.50;99.90;;;;;;5115916;27;20078;-80
2022/03/14 10:35:36;;;;;;;18.10;13.80;;;9.50;99.90;;;;;;5116012;27;20031;-80
2022/03/14 10:38:05;;;;;;;20.33;14.52;;;9.50;99.90;;;;;;5097806;27;20083;-80
2022/03/14 10:40:36;;;;;;;20.58;15.15;;;9.50;99.90;;;;;;5098781;28;20081;-80
2022/03/14 10:43:06;;;;;;;21.77;15.93;;;9.50;99.90;;;;;;5115606;27;20078;-80
2022/03/14 10:45:32;;;;;;;22.67;16.00;;;9.50;99.90;;;;;;5115859;28;20438;-80
2022/03/14 10:48:02;;;;;;;23.20;16.50;;;9.50;99.90;;;;;;5115437;28;20488;-80
2022/03/14 10:50:37;;;;;;;20.73;16.50;;;9.60;99.90;;;;;;5092811;27;20035;-80
2022/03/14 10:53:10;;;;;;;23.92;16.77;;;9.60;99.90;;;;;;5104470;27;20043;-80
2022/03/14 10:55:41;;;;;;;26.33;17.33;;;9.60;99.90;;;;;;5100648;27;20031;-80
2022/03/14 10:58:33;;;;;;;24.83;18.52;;;9.60;99.90;;;;;;5115042;28;20074;-80
2022/03/14 11:01:02;;;;;;;28.52;17.25;;;9.70;99.90;;;;;;5090807;27;20055;-80
2022/03/14 11:03:33;;;;;;;23.63;16.75;;;9.70;99.90;;;;;;5114776;27;20444;-80
2022/03/14 11:06:01;;;;;;;30.30;18.60;;;9.80;99.90;;;;;;5114714;27;20035;-80
2022/03/14 11:08:28;;;;;;;25.10;17.33;;;9.80;99.90;;;;;;5113699;27;20040;-80
2022/03/14 11:10:55;;;;;;;22.02;15.30;;;9.80;99.90;;;;;;5097800;27;20027;-80
2022/03/14 11:13:21;;;;;;;23.85;15.63;;;9.90;99.90;;;;;;5114673;27;20031;-80
2022/03/14 11:15:47;;;;;;;23.52;15.48;;;9.90;99.90;;;;;;5099244;27;20481;-80
2022/03/14 11:18:13;;;;;;;22.25;15.20;;;9.90;99.90;;;;;;5118096;27;20049;-80
2022/03/14 11:20:40;;;;;;;23.83;14.75;;;9.90;99.90;;;;;;5097829;27;20439;-80
2022/03/14 11:23:06;;;;;;;21.98;14.07;;;10.00;99.90;;;;;;5113912;27;20136;-80
2022/03/14 11:25:33;;;;;;;20.65;14.27;;;10.00;99.90;;;;;;5116778;27;20038;-80
2022/03/14 11:28:00;;;;;;;24.58;16.58;;;9.90;99.90;;;;;;5105368;27;20126;-80
2022/03/14 11:30:27;;;;;;;22.92;13.90;;;10.00;99.90;;;;;;5118552;27;20111;-80
2022/03/14 11:32:53;;;;;;;21.08;13.48;;;10.10;99.90;;;;;;5118498;27;20104;-79
2022/03/14 11:35:20;;;;;;;26.60;16.05;;;10.10;99.90;;;;;;5118488;27;20035;-79
2022/03/14 11:37:47;;;;;;;21.85;12.70;;;10.10;99.90;;;;;;5098932;27;20035;-79
2022/03/14 11:40:14;;;;;;;21.13;13.23;;;10.10;99.90;;;;;;5138637;27;20145;-79
2022/03/14 11:42:40;;;;;;;22.75;13.32;;;10.10;99.90;;;;;;5104162;27;20061;-79
2022/03/14 11:45:07;;;;;;;21.45;12.70;;;10.10;99.90;;;;;;5070407;27;20039;-79
2022/03/14 11:47:33;;;;;;;19.98;11.40;;;10.10;99.90;;;;;;5100720;27;20596;-79
2022/03/14 11:50:04;;;;;;;20.05;11.30;;;10.10;99.90;;;;;;5100909;27;20121;-79
2022/03/14 11:52:42;;;;;;;17.05;11.10;;;10.10;99.90;;;;;;5099985;27;20062;-80
2022/03/14 11:55:27;;;;;;;18.50;10.20;;;10.10;99.90;;;;;;5101099;27;20039;-80
2022/03/14 11:57:53;;;;;;;17.27;8.77;;;10.10;99.90;;;;;;5117865;27;20027;-80
2022/03/14 12:00:21;;;;;;;17.00;8.57;;;10.10;99.90;;;;;;5120507;27;20039;-80
2022/03/14 12:02:55;;;;;;;16.38;8.77;;;10.00;99.90;;;;;;5117744;27;20035;-80
2022/03/14 12:05:41;;;;;;;16.45;8.35;;;10.00;99.90;;;;;;5120708;27;20034;-80
2022/03/14 12:08:12;;;;;;;16.55;7.47;;;10.00;99.90;;;;;;5119607;27;20099;-80
2022/03/14 12:10:38;;;;;;;18.85;7.95;;;10.00;99.90;;;;;;5138283;27;20049;-80
2022/03/14 12:13:03;;;;;;;18.13;8.05;;;10.10;99.90;;;;;;5086968;27;20035;-79
2022/03/14 12:15:41;;;;;;;19.15;7.65;;;10.10;99.90;;;;;;5128196;27;20034;-79
2022/03/14 12:18:43;;;;;;;14.40;6.88;;;10.10;99.90;;;;;;5122390;27;20524;-79
2022/03/14 12:21:52;;;;;;;13.93;6.17;;;10.10;99.90;;;;;;5015718;28;20083;-79
2022/03/14 12:24:38;;;;;;;17.05;7.45;;;10.20;99.90;;;;;;5105123;27;20289;-79
2022/03/14 12:27:15;;;;;;;15.68;6.60;;;10.30;99.90;;;;;;5101968;27;20043;-79
2022/03/14 12:29:41;;;;;;;15.15;6.55;;;10.40;99.90;;;;;;5122927;27;20431;-79
2022/03/14 12:32:28;;;;;;;17.60;6.85;;;10.50;99.90;;;;;;5126791;27;20070;-79
2022/03/14 12:35:00;;;;;;;14.95;6.47;;;10.60;99.90;;;;;;5103935;27;20031;-79
2022/03/14 12:37:42;;;;;;;16.45;6.53;;;10.70;99.90;;;;;;5124799;27;20035;-80
2022/03/14 12:40:33;;;;;;;18.98;7.45;;;10.80;99.90;;;;;;5097695;27;20042;-79
2022/03/14 12:43:17;;;;;;;17.63;7.77;;;10.90;99.90;;;;;;5107387;27;20571;-79
2022/03/14 12:45:47;;;;;;;17.30;8.23;;;11.00;99.90;;;;;;5116648;27;20092;-79
2022/03/14 12:48:15;;;;;;;14.50;8.20;;;11.00;99.90;;;;;;5109838;27;20092;-79
2022/03/14 12:50:43;;;;;;;18.05;9.82;;;11.10;99.90;;;;;;5127915;27;20039;-79
2022/03/14 12:53:12;;;;;;;18.40;10.00;;;11.10;99.90;;;;;;5116097;27;20039;-79